Time;durP1;ratioP1;P1;durP2;ratioP2;P2;SDS_P1;SDS_P2;PMS_P1;PMS_P2;Temp;Humidity;BMP_temperature;BMP_pressure;BME280_temperature;BME280_humidity;BME280_pressure;Samples;Min_cycle;Max_cycle;Signal;HPM_P1;HPM_P2
2021/03/11 00:00:52;;;;;;;13.53;7.77;;;8.10;50.80;;;8.25;44.03;97185.09;4985731;28;20054;-34
2021/03/11 00:03:23;;;;;;;13.87;10.17;;;8.10;50.80;;;8.27;44.09;97181.31;4985072;28;20064;-34
2021/03/11 00:05:51;;;;;;;12.10;8.13;;;8.10;50.80;;;8.29;43.82;97175.84;4986979;28;20064;-34
2021/03/11 00:08:19;;;;;;;10.77;7.30;;;8.10;50.80;;;8.32;44.34;97182.63;4998782;28;20058;-34
2021/03/11 00:10:47;;;;;;;11.43;7.33;;;8.10;51.70;;;8.34;43.51;97180.69;4985203;28;20050;-34
2021/03/11 00:13:14;;;;;;;12.03;7.73;;;8.10;50.50;;;8.35;44.00;97174.38;4986539;28;20054;-34
2021/03/11 00:15:43;;;;;;;12.77;6.97;;;8.10;50.70;;;8.34;43.46;97180.69;4985733;28;20078;-34
2021/03/11 00:18:12;;;;;;;13.37;7.70;;;8.10;50.80;;;8.35;44.15;97175.22;4986737;28;20058;-34
2021/03/11 00:20:39;;;;;;;12.07;7.60;;;8.10;50.60;;;8.37;43.81;97177.72;4985591;28;20046;-34
2021/03/11 00:23:07;;;;;;;11.87;7.33;;;8.20;50.60;;;8.37;44.01;97175.88;5001220;28;20352;-34
2021/03/11 00:25:36;;;;;;;10.63;7.47;;;8.20;50.50;;;8.40;44.02;97177.41;4985882;28;20062;-34
2021/03/11 00:28:06;;;;;;;13.87;6.97;;;8.20;50.60;;;8.43;43.44;97182.41;4985272;28;20058;-34
2021/03/11 00:30:35;;;;;;;11.47;7.07;;;8.20;50.60;;;8.43;43.70;97175.31;4986949;28;20414;-34
2021/03/11 00:33:02;;;;;;;11.77;7.33;;;8.20;50.70;;;8.43;43.85;97163.84;4986039;28;20394;-34
2021/03/11 00:35:30;;;;;;;10.60;7.83;;;8.30;50.80;;;8.44;44.02;97173.47;4986141;28;20054;-34
2021/03/11 00:37:57;;;;;;;9.90;6.47;;;8.30;50.90;;;8.44;44.12;97169.00;4984570;28;20259;-34
2021/03/11 00:40:25;;;;;;;13.60;8.07;;;8.30;50.90;;;8.45;43.85;97172.47;4984998;28;20065;-34
2021/03/11 00:42:53;;;;;;;10.67;7.87;;;8.20;51.00;;;8.44;44.20;97166.34;4986162;28;20054;-34
2021/03/11 00:45:20;;;;;;;13.30;6.97;;;8.20;51.00;;;8.45;43.94;97169.81;4999178;28;20058;-34
2021/03/11 00:47:49;;;;;;;12.10;7.23;;;8.20;51.00;;;8.46;43.94;97172.31;4986433;28;20511;-34
2021/03/11 00:50:21;;;;;;;14.10;7.77;;;8.20;51.00;;;8.47;43.84;97165.16;4983872;28;20056;-34
2021/03/11 00:52:49;;;;;;;13.23;7.63;;;8.30;51.10;;;8.46;43.91;97180.28;4984974;28;20058;-34
2021/03/11 00:55:20;;;;;;;13.07;7.90;;;8.20;51.00;;;8.47;43.84;97181.09;4986081;28;20057;-35
2021/03/11 00:57:48;;;;;;;10.40;7.33;;;8.20;51.10;;;8.46;44.15;97187.41;4985205;28;20072;-34
2021/03/11 01:00:22;;;;;;;12.47;7.70;;;8.20;51.00;;;8.45;44.09;97183.06;4987104;28;20052;-34
2021/03/11 01:02:56;;;;;;;16.13;8.23;;;8.20;50.80;;;8.44;43.92;97163.69;5000376;28;20160;-35
2021/03/11 01:05:33;;;;;;;12.10;7.57;;;8.20;50.80;;;8.46;43.78;97168.84;5005051;28;20061;-34
2021/03/11 01:08:08;;;;;;;11.07;7.27;;;8.20;50.70;;;8.47;43.68;97166.03;5018874;28;20063;-34
2021/03/11 01:10:37;;;;;;;13.03;7.30;;;8.20;50.60;;;8.45;43.57;97157.41;5003876;28;20057;-34
2021/03/11 01:13:05;;;;;;;9.27;6.57;;;8.20;50.70;;;8.47;43.94;97154.56;5005198;28;20060;-34
2021/03/11 01:15:37;;;;;;;11.50;6.80;;;8.30;50.80;;;8.50;43.45;97148.13;5003753;28;20366;-34
2021/03/11 01:18:07;;;;;;;10.27;6.53;;;8.30;50.60;;;8.49;43.76;97147.28;5019398;28;20232;-34
2021/03/11 01:20:34;;;;;;;10.97;6.37;;;8.30;50.80;;;8.48;43.63;97142.97;5003746;28;20362;-34
2021/03/11 01:23:02;;;;;;;11.13;6.83;;;8.30;50.90;;;8.48;44.14;97143.78;5020714;28;20413;-34
2021/03/11 01:25:29;;;;;;;10.20;6.20;;;8.30;51.00;;;8.48;44.15;97135.84;5004495;28;20340;-34
2021/03/11 01:27:57;;;;;;;9.10;5.73;;;8.30;50.90;;;8.48;43.94;97127.88;5004898;28;20050;-34
2021/03/11 01:30:25;;;;;;;9.20;6.40;;;8.30;51.00;;;8.50;44.33;97132.22;5012062;28;20347;-34
2021/03/11 01:32:52;;;;;;;7.57;5.00;;;8.30;51.10;;;8.50;44.66;97113.63;4992676;28;20042;-34
2021/03/11 01:35:20;;;;;;;7.80;5.00;;;8.30;51.40;;;8.50;44.58;97106.50;4989215;28;20272;-34
2021/03/11 01:37:47;;;;;;;6.47;4.23;;;8.30;51.50;;;8.55;44.53;97100.69;4993194;28;20343;-34
2021/03/11 01:40:15;;;;;;;7.70;4.77;;;8.40;51.50;;;8.57;44.24;97088.09;4995571;28;20053;-34
2021/03/11 01:42:42;;;;;;;8.40;4.00;;;8.40;51.60;;;8.59;44.77;97068.41;4992709;28;20136;-34
2021/03/11 01:45:11;;;;;;;8.00;5.27;;;8.40;51.70;;;8.59;44.94;97065.75;4993883;28;20073;-34
2021/03/11 01:47:38;;;;;;;7.60;4.67;;;8.50;51.80;;;8.61;44.81;97060.28;4991849;28;20050;-34
2021/03/11 01:50:07;;;;;;;9.97;5.67;;;8.50;51.80;;;8.61;44.69;97057.63;4987314;28;20049;-34
2021/03/11 01:52:36;;;;;;;9.60;5.30;;;8.50;51.90;;;8.62;44.99;97060.09;4987745;28;20042;-34
2021/03/11 01:55:04;;;;;;;8.97;5.53;;;8.50;51.90;;;8.64;44.53;97050.13;4988179;28;20054;-34
2021/03/11 01:57:32;;;;;;;6.53;4.43;;;8.50;51.80;;;8.62;45.22;97041.50;4988678;28;20498;-34
2021/03/11 02:00:06;;;;;;;7.53;3.73;;;8.40;52.50;;;8.62;45.14;97030.91;5002891;28;20362;-34
2021/03/11 02:02:45;;;;;;;6.07;3.87;;;8.40;52.80;;;8.64;45.46;97028.91;4990943;28;20042;-34
2021/03/11 02:05:16;;;;;;;6.40;4.10;;;8.50;53.20;;;8.63;45.60;97016.66;4988307;28;20056;-34
2021/03/11 02:07:45;;;;;;;7.73;4.33;;;8.40;53.20;;;8.63;45.56;97014.00;5002562;28;20084;-34
2021/03/11 02:10:20;;;;;;;6.83;3.70;;;8.40;53.40;;;8.64;46.00;96998.91;5003004;28;20120;-34
2021/03/11 02:13:21;;;;;;;6.70;3.40;;;8.40;53.60;;;8.64;46.12;97004.22;4988392;28;20241;-34
2021/03/11 02:16:07;;;;;;;5.87;3.30;;;8.40;54.30;;;8.65;45.71;96995.28;4987932;28;20068;-34
2021/03/11 02:18:55;;;;;;;7.27;3.57;;;8.40;54.30;;;8.65;46.30;96982.00;5003141;28;20066;-34
2021/03/11 02:21:45;;;;;;;6.43;3.37;;;8.40;53.70;;;8.66;46.21;96983.66;5000612;28;20061;-34
2021/03/11 02:24:53;;;;;;;5.97;4.20;;;8.50;54.10;;;8.67;46.14;96978.19;5000733;28;20054;-34
2021/03/11 02:27:35;;;;;;;6.30;4.13;;;8.50;53.80;;;8.66;46.01;96967.72;4986362;28;20050;-34
2021/03/11 02:30:04;;;;;;;10.37;4.17;;;8.40;53.70;;;8.68;46.11;96960.41;4986681;28;20340;-34
2021/03/11 02:32:33;;;;;;;6.10;3.50;;;8.50;53.90;;;8.67;46.04;96951.63;4989180;28;20046;-34
2021/03/11 02:35:03;;;;;;;6.43;3.60;;;8.50;54.00;;;8.69;46.56;96940.03;5002152;28;20055;-34
2021/03/11 02:37:36;;;;;;;5.67;3.47;;;8.50;54.30;;;8.69;46.21;96932.09;4987426;28;20058;-34
2021/03/11 02:40:08;;;;;;;6.67;3.67;;;8.50;54.40;;;8.69;46.65;96932.91;4987024;28;20064;-34
2021/03/11 02:42:39;;;;;;;4.90;3.23;;;8.50;54.60;;;8.69;46.57;96935.56;4988191;28;20117;-34
2021/03/11 02:45:11;;;;;;;4.20;3.00;;;8.50;54.70;;;8.69;46.91;96926.78;4987238;28;20368;-34
2021/03/11 02:47:41;;;;;;;5.53;3.50;;;8.50;54.70;;;8.69;46.65;96922.28;5001077;28;20052;-34
2021/03/11 02:50:12;;;;;;;7.63;4.27;;;8.50;54.80;;;8.69;46.81;96906.38;4986447;28;20062;-34
2021/03/11 02:52:41;;;;;;;6.73;3.93;;;8.50;54.80;;;8.70;46.77;96901.88;5002812;28;20356;-34
2021/03/11 02:55:23;;;;;;;11.63;6.10;;;8.50;54.90;;;8.71;46.82;96899.06;5000067;28;20057;-34
2021/03/11 02:57:52;;;;;;;14.83;7.17;;;8.60;55.00;;;8.70;47.18;96889.44;4986897;28;20056;-34
2021/03/11 03:00:22;;;;;;;9.37;4.60;;;8.60;55.00;;;8.71;46.85;96890.28;5001318;28;20054;-34
2021/03/11 03:02:52;;;;;;;6.53;4.07;;;8.50;55.00;;;8.71;46.90;96891.09;5003179;28;20046;-34
2021/03/11 03:05:24;;;;;;;6.70;3.87;;;8.60;55.10;;;8.70;47.12;96886.78;4987264;28;20054;-34
2021/03/11 03:07:52;;;;;;;6.90;3.63;;;8.60;55.20;;;8.71;46.99;96885.81;4987148;28;20275;-34
2021/03/11 03:10:31;;;;;;;7.33;3.40;;;8.50;55.20;;;8.70;46.98;96873.50;4999007;28;20065;-34
2021/03/11 03:13:10;;;;;;;5.63;3.50;;;8.50;56.00;;;8.67;47.45;96872.03;4987888;28;20333;-34
2021/03/11 03:15:37;;;;;;;8.37;4.70;;;8.50;56.00;;;8.67;47.82;96863.25;5000572;28;20050;-34
2021/03/11 03:18:06;;;;;;;6.27;3.77;;;8.40;56.50;;;8.65;48.19;96863.41;4987214;28;20368;-34
2021/03/11 03:20:33;;;;;;;7.03;4.57;;;8.40;56.70;;;8.66;48.50;96864.22;4986068;28;20038;-34
2021/03/11 03:23:05;;;;;;;5.80;3.63;;;8.40;56.90;;;8.65;48.52;96858.09;5000994;28;20058;-34
2021/03/11 03:25:49;;;;;;;4.60;3.43;;;8.40;57.70;;;8.64;48.27;96856.44;4986548;28;20064;-34
2021/03/11 03:28:17;;;;;;;7.97;3.90;;;8.40;57.10;;;8.64;48.61;96851.13;4985675;28;20062;-34
2021/03/11 03:30:45;;;;;;;6.77;4.30;;;8.40;57.60;;;8.63;48.64;96854.78;5001302;28;20080;-34
2021/03/11 03:33:16;;;;;;;6.67;4.07;;;8.30;57.70;;;8.62;49.04;96853.13;4985846;28;20232;-34
2021/03/11 03:35:44;;;;;;;7.07;4.00;;;8.30;57.90;;;8.62;48.83;96841.69;5000957;28;20140;-34
2021/03/11 03:38:13;;;;;;;6.63;4.17;;;8.30;58.00;;;8.63;48.55;96838.06;4986420;28;20046;-34
2021/03/11 03:40:42;;;;;;;5.17;3.87;;;8.40;57.60;;;8.63;48.99;96835.41;5001210;28;20050;-34
2021/03/11 03:43:23;;;;;;;6.03;4.00;;;8.50;57.50;;;8.65;48.52;96833.41;4985889;28;20054;-34
2021/03/11 03:45:59;;;;;;;7.00;4.20;;;8.40;57.70;;;8.64;48.74;96840.50;4999228;28;20068;-34
2021/03/11 03:48:37;;;;;;;9.37;4.73;;;8.40;57.80;;;8.65;49.05;96836.88;4986304;28;20226;-34
2021/03/11 03:51:06;;;;;;;7.30;4.33;;;8.40;57.60;;;8.67;49.18;96837.53;4984752;28;20060;-34
2021/03/11 03:53:48;;;;;;;7.27;4.50;;;8.40;57.50;;;8.68;48.82;96830.41;4984760;28;20137;-34
2021/03/11 03:56:30;;;;;;;9.20;4.93;;;8.40;58.00;;;8.69;48.96;96839.22;4984984;28;20054;-34
2021/03/11 03:59:05;;;;;;;5.63;3.97;;;8.40;57.40;;;8.71;48.59;96846.00;4987375;28;20452;-34
2021/03/11 04:01:38;;;;;;;7.10;4.63;;;8.40;57.00;;;8.74;48.24;96842.16;4999951;28;20056;-34
2021/03/11 04:04:08;;;;;;;6.15;4.07;;;8.50;56.70;;;8.76;48.37;96834.84;4986672;28;20575;-34
2021/03/11 04:06:38;;;;;;;7.67;3.60;;;8.60;56.50;;;8.79;48.08;96829.22;4987162;28;20360;-34
2021/03/11 04:09:10;;;;;;;7.07;3.90;;;8.60;56.30;;;8.81;48.39;96830.69;5001348;28;20502;-34
2021/03/11 04:11:41;;;;;;;6.10;4.00;;;8.60;56.60;;;8.82;48.38;96828.88;4998706;28;20702;-34
2021/03/11 04:14:10;;;;;;;6.70;4.17;;;8.60;56.40;;;8.83;48.23;96831.34;5002071;28;20058;-34
2021/03/11 04:16:41;;;;;;;7.97;4.53;;;8.60;56.40;;;8.83;48.39;96820.75;4985789;28;20060;-34
2021/03/11 04:19:11;;;;;;;8.23;3.93;;;8.70;56.70;;;8.86;48.44;96816.94;5000572;28;20060;-34
2021/03/11 04:21:38;;;;;;;6.90;4.30;;;8.70;56.70;;;8.87;48.27;96816.75;4984786;28;20064;-34
2021/03/11 04:24:07;;;;;;;8.90;3.77;;;8.70;56.70;;;8.90;48.35;96820.91;5000012;28;20352;-34
2021/03/11 04:26:37;;;;;;;12.93;8.23;;;8.70;56.80;;;8.93;48.74;96814.41;4999859;28;20068;-34
2021/03/11 04:29:05;;;;;;;8.33;3.90;;;8.80;56.80;;;8.94;48.71;96816.91;5000265;28;20057;-34
2021/03/11 04:31:34;;;;;;;5.47;3.77;;;8.80;56.80;;;8.98;48.42;96820.06;5000449;28;20042;-34
2021/03/11 04:34:03;;;;;;;7.10;4.40;;;8.80;56.80;;;8.97;48.66;96816.53;5000066;28;20046;-34
2021/03/11 04:36:32;;;;;;;6.00;4.00;;;8.80;57.10;;;8.97;48.92;96808.59;4999776;28;20056;-35
2021/03/11 04:39:00;;;;;;;7.07;4.00;;;8.90;57.50;;;9.02;49.21;96813.41;4986253;28;20058;-34
2021/03/11 04:41:28;;;;;;;7.53;4.10;;;8.90;57.70;;;9.02;49.21;96814.22;4982404;28;20065;-34
2021/03/11 04:43:56;;;;;;;7.53;3.77;;;8.90;57.70;;;9.06;49.26;96817.38;4983976;28;20058;-34
2021/03/11 04:46:24;;;;;;;6.23;3.97;;;9.00;57.70;;;9.09;49.45;96811.69;4999295;28;20057;-34
2021/03/11 04:48:53;;;;;;;6.80;4.23;;;9.00;57.90;;;9.12;49.40;96810.53;4985657;28;20054;-34
2021/03/11 04:51:22;;;;;;;6.60;3.67;;;9.00;58.00;;;9.13;49.49;96806.88;4985300;28;20271;-34
2021/03/11 04:53:54;;;;;;;6.47;3.67;;;9.10;58.00;;;9.17;49.67;96806.38;5000962;28;20052;-34
2021/03/11 04:56:25;;;;;;;5.33;3.33;;;9.10;58.00;;;9.19;49.80;96800.84;4984992;28;20058;-34
2021/03/11 04:58:55;;;;;;;4.77;2.87;;;9.10;58.00;;;9.22;49.81;96804.00;4985751;28;20055;-34
2021/03/11 05:01:32;;;;;;;4.57;2.90;;;9.20;57.90;;;9.23;49.99;96803.00;4999598;28;20058;-34
2021/03/11 05:04:02;;;;;;;4.07;2.77;;;9.20;58.20;;;9.23;50.10;96810.16;4986017;28;20501;-34
2021/03/11 05:06:29;;;;;;;4.97;3.27;;;9.20;58.90;;;9.25;49.83;96803.66;4985097;28;20089;-34
2021/03/11 05:08:56;;;;;;;6.27;3.50;;;9.20;58.00;;;9.19;50.19;96801.72;4986186;28;20117;-34
2021/03/11 05:11:24;;;;;;;5.33;3.30;;;9.20;58.60;;;9.22;50.51;96798.69;4985887;28;20348;-34
2021/03/11 05:13:51;;;;;;;5.33;3.60;;;9.20;58.50;;;9.21;50.38;96798.88;4985290;28;20050;-34
2021/03/11 05:16:19;;;;;;;8.30;4.70;;;9.20;58.50;;;9.22;50.42;96804.00;4985626;28;20060;-34
2021/03/11 05:18:47;;;;;;;4.83;3.17;;;9.20;58.50;;;9.26;50.19;96794.69;4986040;28;20056;-34
2021/03/11 05:21:14;;;;;;;6.50;3.67;;;9.20;58.50;;;9.27;50.42;96796.34;4999723;28;20058;-34
2021/03/11 05:23:58;;;;;;;9.03;3.17;;;9.20;58.50;;;9.29;50.44;96790.88;5004580;28;20444;-34
2021/03/11 05:26:28;;;;;;;6.90;3.57;;;9.30;58.70;;;9.27;50.94;96801.66;4989357;28;20046;-34
2021/03/11 05:28:56;;;;;;;7.30;3.73;;;9.20;59.10;;;9.27;50.63;96799.00;4989094;28;20244;-34
2021/03/11 05:31:23;;;;;;;6.17;3.43;;;9.20;59.10;;;9.26;51.08;96805.31;4998890;22;20038;-34
2021/03/11 05:33:51;;;;;;;5.10;4.00;;;9.20;60.00;;;9.30;50.68;96794.34;4988918;28;20050;-34
2021/03/11 05:36:19;;;;;;;5.53;3.73;;;9.20;59.10;;;9.31;50.64;96790.72;4989218;28;20217;-34
2021/03/11 05:38:46;;;;;;;7.37;3.50;;;9.20;59.10;;;9.28;50.95;96786.53;4987852;28;20586;-34
2021/03/11 05:41:15;;;;;;;5.23;2.97;;;9.20;59.60;;;9.28;51.40;96802.47;4988640;28;20046;-34
2021/03/11 05:43:43;;;;;;;6.30;4.33;;;9.20;60.50;;;9.24;51.59;96794.03;4987776;28;20046;-34
2021/03/11 05:46:11;;;;;;;4.77;2.97;;;9.20;60.70;;;9.25;51.30;96777.09;4987129;28;20058;-34
2021/03/11 05:48:43;;;;;;;6.10;2.60;;;9.20;60.00;;;9.22;52.05;96781.94;4987774;28;20056;-34
2021/03/11 05:51:12;;;;;;;4.17;2.93;;;9.20;60.90;;;9.19;51.96;96775.16;4987639;28;20050;-34
2021/03/11 05:53:39;;;;;;;4.43;3.10;;;9.20;60.50;;;9.13;52.56;96782.97;4987812;28;20054;-34
2021/03/11 05:56:07;;;;;;;4.97;2.87;;;9.20;61.40;;;9.11;52.64;96783.16;4987578;28;20057;-34
2021/03/11 05:58:34;;;;;;;5.83;3.83;;;9.10;61.80;;;9.08;53.24;96764.91;4987485;28;20042;-34
2021/03/11 06:01:03;;;;;;;3.93;3.20;;;9.10;62.20;;;9.10;53.13;96773.53;4987465;28;20049;-34
2021/03/11 06:03:34;;;;;;;5.23;2.73;;;9.10;62.80;;;9.13;52.89;96778.50;4987954;28;20066;-35
2021/03/11 06:06:02;;;;;;;4.90;2.90;;;9.20;62.10;;;9.12;52.75;96750.28;4986674;28;20062;-34
2021/03/11 06:08:31;;;;;;;4.57;2.93;;;9.20;61.70;;;9.15;53.05;96739.31;4987998;28;20352;-34
2021/03/11 06:11:00;;;;;;;4.70;2.87;;;9.20;62.10;;;9.18;52.96;96728.34;4987567;28;20229;-34
2021/03/11 06:13:30;;;;;;;4.67;3.10;;;9.20;62.00;;;9.22;52.44;96728.81;4987869;28;20038;-34
2021/03/11 06:16:16;;;;;;;4.50;2.83;;;9.20;61.60;;;9.24;53.15;96722.31;4986083;28;20050;-34
2021/03/11 06:18:45;;;;;;;4.73;2.50;;;9.20;62.10;;;9.26;52.92;96730.13;4986678;28;20791;-34
2021/03/11 06:21:13;;;;;;;4.47;2.27;;;9.30;61.80;;;9.29;52.65;96728.97;4987940;28;20492;-34
2021/03/11 06:23:41;;;;;;;5.23;2.70;;;9.30;61.40;;;9.30;53.14;96738.56;4988080;28;20069;-34
2021/03/11 06:26:11;;;;;;;4.07;2.50;;;9.30;62.40;;;9.26;53.53;96738.09;4988367;28;20058;-34
2021/03/11 06:28:45;;;;;;;5.37;2.77;;;9.30;62.60;;;9.30;53.08;96723.44;4988504;28;20543;-34
2021/03/11 06:31:31;;;;;;;4.47;3.07;;;9.40;62.10;;;9.32;53.64;96721.44;4987098;28;20058;-34
2021/03/11 06:34:00;;;;;;;4.10;3.23;;;9.40;62.60;;;9.34;53.60;96732.72;4986097;28;20338;-34
2021/03/11 06:36:31;;;;;;;3.93;2.40;;;9.40;62.50;;;9.36;53.41;96730.72;4988054;28;20057;-34
2021/03/11 06:38:59;;;;;;;8.63;2.90;;;9.50;62.20;;;9.37;53.61;96728.91;4986841;28;20050;-34
2021/03/11 06:41:47;;;;;;;5.67;3.30;;;9.50;61.90;;;9.42;53.30;96710.59;4986702;28;20052;-34
2021/03/11 06:44:14;;;;;;;4.47;2.43;;;9.60;62.20;;;9.45;53.02;96728.84;4986807;28;20221;-34
2021/03/11 06:47:04;;;;;;;3.47;2.27;;;9.60;61.60;;;9.48;53.30;96738.28;4988080;28;20260;-34
2021/03/11 06:49:33;;;;;;;4.30;2.40;;;9.60;62.60;;;9.49;53.14;96738.13;4988232;28;20064;-35
2021/03/11 06:52:13;;;;;;;7.37;4.03;;;9.60;61.50;;;9.57;52.91;96734.56;4986533;28;20064;-35
2021/03/11 06:55:13;;;;;;;4.33;2.90;;;9.70;61.50;;;9.61;52.97;96727.91;4985051;28;20058;-34
2021/03/11 06:57:41;;;;;;;3.27;2.20;;;9.70;61.50;;;9.61;52.76;96728.72;4966054;28;20233;-34
2021/03/11 07:00:23;;;;;;;6.43;2.90;;;9.80;61.00;;;9.65;52.76;96732.69;4969793;28;20262;-35
2021/03/11 07:02:55;;;;;;;9.23;3.90;;;9.80;61.20;;;9.68;52.56;96731.50;4985545;28;20057;-34
2021/03/11 07:05:25;;;;;;;5.23;2.50;;;9.80;60.90;;;9.72;52.71;96724.81;4986901;28;20054;-34
2021/03/11 07:08:07;;;;;;;3.93;2.53;;;9.90;60.80;;;9.75;52.85;96724.47;4988096;28;20247;-34
2021/03/11 07:10:36;;;;;;;4.23;2.30;;;9.90;61.10;;;9.83;52.55;96720.94;4986573;28;20077;-34
2021/03/11 07:13:05;;;;;;;2.83;2.30;;;10.00;60.80;;;9.85;52.48;96726.91;4987462;28;20217;-34
2021/03/11 07:15:35;;;;;;;4.30;2.43;;;10.00;60.60;;;9.91;52.62;96718.19;4986844;28;20054;-34
2021/03/11 07:18:19;;;;;;;4.27;2.30;;;10.00;60.60;;;9.92;52.68;96706.53;4987160;28;20058;-34
2021/03/11 07:20:47;;;;;;;4.32;2.83;;;10.10;60.90;;;9.94;52.70;96707.19;4987341;28;20054;-34
2021/03/11 07:23:15;;;;;;;5.53;2.57;;;10.10;60.80;;;10.00;52.40;96705.63;4985667;28;20062;-34
2021/03/11 07:25:47;;;;;;;3.40;2.00;;;10.10;60.60;;;10.04;52.61;96707.78;4985971;28;20057;-34
2021/03/11 07:28:28;;;;;;;3.80;1.90;;;10.20;60.70;;;10.07;52.94;96716.41;4986239;28;20064;-34
2021/03/11 07:31:03;;;;;;;3.93;2.07;;;10.30;61.10;;;10.06;52.68;96710.22;4985933;28;20053;-34
2021/03/11 07:33:34;;;;;;;4.13;2.50;;;10.20;60.90;;;10.11;52.94;96707.06;4987107;28;20053;-34
2021/03/11 07:36:05;;;;;;;4.57;2.43;;;10.30;61.20;;;10.14;52.80;96701.34;4985804;28;20047;-34
2021/03/11 07:38:35;;;;;;;5.10;3.07;;;10.30;61.10;;;10.19;53.05;96702.47;4985557;28;20382;-34
2021/03/11 07:41:06;;;;;;;4.10;1.90;;;10.40;60.80;;;10.21;52.92;96713.75;4984905;28;20046;-34
2021/03/11 07:43:34;;;;;;;4.37;2.10;;;10.40;61.00;;;10.22;52.89;96714.59;4986829;28;20339;-34
2021/03/11 07:46:05;;;;;;;2.83;1.60;;;10.40;60.80;;;10.27;53.15;96701.56;4986519;28;20370;-34
2021/03/11 07:48:33;;;;;;;3.10;1.90;;;10.40;60.80;;;10.31;53.15;96702.06;4986268;28;20259;-34
2021/03/11 07:51:02;;;;;;;2.97;1.90;;;10.50;61.00;;;10.33;53.14;96713.34;4968673;28;20072;-34
2021/03/11 07:53:29;;;;;;;3.33;1.80;;;10.50;61.40;;;10.38;53.11;96695.81;4984761;28;20343;-34
2021/03/11 07:55:58;;;;;;;3.30;1.80;;;10.60;60.90;;;10.42;52.80;96701.59;4985536;28;20046;-34
2021/03/11 07:58:46;;;;;;;4.50;1.80;;;10.60;61.00;;;10.39;53.06;96697.47;4987915;28;20056;-34
2021/03/11 08:01:15;;;;;;;2.77;1.60;;;10.70;61.20;;;10.40;53.22;96715.09;4983275;28;20061;-34
2021/03/11 08:03:49;;;;;;;3.73;1.90;;;10.70;61.10;;;10.47;53.33;96715.19;4987265;28;20064;-34
2021/03/11 08:06:28;;;;;;;3.90;1.85;;;10.80;61.20;;;10.53;53.20;96700.34;4985425;28;20058;-35
2021/03/11 08:08:56;;;;;;;3.30;1.77;;;10.80;60.90;;;10.58;52.79;96685.44;4984512;28;20046;-35
2021/03/11 08:11:39;;;;;;;3.10;1.60;;;10.80;60.70;;;10.66;52.72;96695.16;4985614;28;20522;-34
2021/03/11 08:14:23;;;;;;;4.95;1.80;;;11.00;60.60;;;10.73;52.89;96681.94;4985627;28;20046;-34
2021/03/11 08:16:53;;;;;;;2.55;1.45;;;11.00;60.40;;;10.74;52.84;96679.13;4984293;28;20081;-34
2021/03/11 08:19:37;;;;;;;3.03;1.50;;;11.00;60.30;;;10.80;52.92;96697.00;4987776;28;20048;-34
2021/03/11 08:22:04;;;;;;;4.57;2.45;;;11.20;60.30;;;10.85;52.59;96691.09;4986201;28;20050;-34
2021/03/11 08:24:49;;;;;;;4.00;2.13;;;11.20;60.10;;;10.93;52.53;96682.19;4978077;28;20261;-35
2021/03/11 08:27:32;;;;;;;3.23;2.00;;;11.20;60.00;;;10.93;52.30;96698.97;4996307;28;20054;-34
2021/03/11 08:30:01;;;;;;;2.70;1.90;;;11.30;60.10;;;11.01;52.30;96682.91;4999250;28;20054;-34
2021/03/11 08:32:49;;;;;;;2.50;1.50;;;11.30;60.20;;;11.07;52.28;96680.50;5000021;28;20068;-34
2021/03/11 08:35:41;;;;;;;4.68;1.60;;;11.40;60.00;;;11.06;52.34;96666.34;4987866;28;20328;-34
2021/03/11 08:38:23;;;;;;;2.67;1.85;;;11.40;59.90;;;11.14;52.15;96654.75;4999429;28;20056;-34
2021/03/11 08:41:08;;;;;;;1.85;1.65;;;11.50;59.80;;;11.14;52.03;96666.25;4999205;28;20403;-34
2021/03/11 08:43:38;;;;;;;3.83;1.67;;;11.50;59.70;;;11.20;51.85;96662.00;5001941;28;20064;-34
2021/03/11 08:46:19;;;;;;;1.73;1.40;;;11.50;59.50;;;11.28;52.10;96661.06;4992072;28;20058;-34
2021/03/11 08:48:52;;;;;;;3.88;1.40;;;11.60;60.10;;;11.29;52.13;96652.06;5000034;28;20056;-34
2021/03/11 08:51:20;;;;;;;2.28;1.48;;;11.60;59.20;;;11.33;51.61;96654.16;4980475;28;20049;-34
2021/03/11 08:54:10;;;;;;;2.90;1.27;;;11.70;59.00;;;11.35;51.75;96681.41;4987587;28;20042;-34
2021/03/11 08:56:41;;;;;;;2.55;1.60;;;11.70;59.10;;;11.35;51.73;96652.13;4999227;28;20055;-34
2021/03/11 08:59:17;;;;;;;2.13;1.55;;;11.60;59.30;;;11.39;51.76;96658.72;4992614;28;20058;-34
2021/03/11 09:01:53;;;;;;;1.90;1.53;;;11.60;59.20;;;11.38;51.36;96672.22;4997456;28;20064;-34
2021/03/11 09:04:24;;;;;;;4.23;1.60;;;11.60;59.30;;;11.38;51.65;96661.56;5000335;28;20371;-34
2021/03/11 09:06:59;;;;;;;1.58;1.20;;;11.60;59.40;;;11.37;51.35;96671.41;4999904;28;20056;-34
2021/03/11 09:09:49;;;;;;;2.17;1.42;;;11.60;59.50;;;11.37;52.08;96652.75;4994134;28;20059;-34
2021/03/11 09:12:37;;;;;;;1.63;1.42;;;11.60;59.80;;;11.38;51.84;96664.22;4985921;28;20058;-34
2021/03/11 09:15:09;;;;;;;2.17;1.52;;;11.60;59.90;;;11.40;52.08;96668.38;4999921;28;20052;-34
2021/03/11 09:17:39;;;;;;;6.20;1.55;;;11.60;60.10;;;11.39;51.89;96669.38;5000542;28;20046;-34
2021/03/11 09:20:16;;;;;;;2.80;1.70;;;11.50;60.20;;;11.34;52.05;96677.13;4992189;28;20054;-34
2021/03/11 09:22:53;;;;;;;3.40;1.52;;;11.50;60.30;;;11.38;51.93;96669.56;4997383;28;20064;-34
2021/03/11 09:25:24;;;;;;;4.85;2.13;;;11.50;60.30;;;11.39;52.28;96661.38;5000731;28;20054;-34
2021/03/11 09:28:10;;;;;;;5.30;3.45;;;11.50;60.50;;;11.43;52.21;96653.81;4998650;28;20062;-34
2021/03/11 09:30:41;;;;;;;4.10;2.30;;;11.60;60.40;;;11.47;51.63;96651.59;4991259;28;20057;-34
2021/03/11 09:33:17;;;;;;;5.35;2.97;;;11.60;60.20;;;11.45;52.02;96645.66;5000361;28;20348;-34
2021/03/11 09:35:45;;;;;;;3.58;1.75;;;11.60;60.20;;;11.47;52.14;96636.44;4999941;28;20043;-34
2021/03/11 09:38:26;;;;;;;3.17;1.30;;;11.60;60.10;;;11.53;51.95;96640.19;4999164;28;20046;-34
2021/03/11 09:40:58;;;;;;;3.38;1.83;;;11.70;60.50;;;11.49;52.25;96628.25;4991234;28;20058;-34
2021/03/11 09:43:39;;;;;;;1.88;1.40;;;11.70;60.40;;;11.52;52.33;96634.03;4987866;28;20042;-35
2021/03/11 09:46:12;;;;;;;1.95;1.42;;;11.70;60.60;;;11.50;52.29;96636.06;4989763;28;20054;-34
2021/03/11 09:48:46;;;;;;;2.58;1.48;;;11.70;60.60;;;11.54;52.45;96621.34;5000089;28;20158;-34
2021/03/11 09:51:26;;;;;;;4.25;2.10;;;11.70;60.60;;;11.56;52.26;96626.47;5000739;28;20046;-34
2021/03/11 09:54:06;;;;;;;3.55;1.80;;;11.70;60.50;;;11.62;52.59;96612.38;4980574;28;20038;-34
2021/03/11 09:56:44;;;;;;;1.30;1.20;;;11.80;60.50;;;11.61;52.64;96606.22;4986459;28;20057;-34
2021/03/11 09:59:16;;;;;;;5.93;1.48;;;11.80;60.70;;;11.55;52.99;96620.31;5000414;28;20056;-34
2021/03/11 10:01:47;;;;;;;1.40;1.25;;;11.80;60.60;;;11.65;52.77;96612.00;4998925;28;20042;-35
2021/03/11 10:04:24;;;;;;;3.15;1.13;;;11.90;60.50;;;11.70;52.71;96604.22;5000193;28;20056;-34
2021/03/11 10:07:05;;;;;;;2.28;1.30;;;11.90;60.40;;;11.76;52.50;96602.63;4988341;28;20065;-34
2021/03/11 10:09:40;;;;;;;1.95;1.08;;;12.00;60.30;;;11.81;52.68;96609.03;5000291;28;20125;-34
2021/03/11 10:12:08;;;;;;;2.97;1.73;;;12.10;60.60;;;11.86;52.16;96587.09;5002812;28;20081;-34
2021/03/11 10:14:37;;;;;;;2.05;1.30;;;12.10;60.20;;;11.90;52.40;96601.72;5003568;28;20058;-34
2021/03/11 10:17:07;;;;;;;1.13;0.95;;;12.20;60.10;;;11.91;52.65;96608.72;4999083;28;20061;-34
2021/03/11 10:19:40;;;;;;;1.77;1.35;;;12.30;60.40;;;11.95;52.20;96606.50;5003564;28;20057;-34
2021/03/11 10:22:17;;;;;;;2.57;1.10;;;12.30;60.20;;;12.00;52.76;96598.75;5002360;28;20057;-34
2021/03/11 10:24:51;;;;;;;2.63;1.00;;;12.30;60.20;;;12.06;52.55;96602.44;5004450;28;20081;-34
2021/03/11 10:27:33;;;;;;;1.63;1.10;;;12.30;60.30;;;12.06;53.01;96608.63;5002298;28;20068;-34
2021/03/11 10:30:12;;;;;;;1.25;1.00;;;12.30;60.70;;;12.11;52.44;96595.50;5004153;28;20056;-34
2021/03/11 10:32:43;;;;;;;2.58;1.30;;;12.40;60.60;;;12.10;52.70;96609.88;5003479;28;20062;-33
2021/03/11 10:35:35;;;;;;;2.17;1.30;;;12.50;60.50;;;12.17;52.79;96585.88;5002005;28;20431;-33
2021/03/11 10:38:22;;;;;;;4.22;1.55;;;12.60;60.70;;;12.21;52.84;96600.47;5002589;28;20174;-33
2021/03/11 10:40:50;;;;;;;3.58;0.90;;;12.60;60.70;;;12.29;52.99;96616.34;5002031;28;20058;-33
2021/03/11 10:43:25;;;;;;;3.40;1.00;;;12.70;60.60;;;12.30;53.64;96606.50;5001759;28;20047;-33
2021/03/11 10:45:53;;;;;;;;;;;12.70;62.20;;;12.33;53.62;96606.09;5002766;28;20061;-33
2021/03/11 10:48:21;;;;;;;2.63;1.30;;;12.70;62.60;;;12.36;53.81;96621.72;5003601;28;19932;-33
2021/03/11 10:50:52;;;;;;;3.40;1.67;;;12.70;62.70;;;12.37;55.69;96628.72;5002402;28;20264;-32